sensor_id;sensor_type;location;lat;lon;timestamp;temperature;humidity
19330;DHT22;9799;48.214;16.388;2023-07-31T00:00:15;20.90;99.90
19330;DHT22;9799;48.214;16.388;2023-07-31T00:03:36;21.00;99.90
19330;DHT22;9799;48.214;16.388;2023-07-31T00:06:59;21.00;99.90
19330;DHT22;9799;48.214;16.388;2023-07-31T00:10:20;21.00;99.90
19330;DHT22;9799;48.214;16.388;2023-07-31T00:13:41;20.90;99.90
19330;DHT22;9799;48.214;16.388;2023-07-31T00:17:03;20.80;99.90
19330;DHT22;9799;48.214;16.388;2023-07-31T00:20:24;20.80;99.90
19330;DHT22;9799;48.214;16.388;2023-07-31T00:23:47;20.80;99.90
19330;DHT22;9799;48.214;16.388;2023-07-31T00:27:08;20.90;99.90
19330;DHT22;9799;48.214;16.388;2023-07-31T00:30:29;20.80;99.90
19330;DHT22;9799;48.214;16.388;2023-07-31T00:33:50;20.70;99.90
19330;DHT22;9799;48.214;16.388;2023-07-31T00:37:11;20.70;99.90
19330;DHT22;9799;48.214;16.388;2023-07-31T00:40:36;20.70;99.90
19330;DHT22;9799;48.214;16.388;2023-07-31T00:43:57;20.80;99.90
19330;DHT22;9799;48.214;16.388;2023-07-31T00:47:18;20.70;99.90
19330;DHT22;9799;48.214;16.388;2023-07-31T00:50:40;20.70;99.90
19330;DHT22;9799;48.214;16.388;2023-07-31T00:54:02;20.70;99.90
19330;DHT22;9799;48.214;16.388;2023-07-31T00:57:24;20.70;99.90
19330;DHT22;9799;48.214;16.388;2023-07-31T01:00:46;20.60;99.90
19330;DHT22;9799;48.214;16.388;2023-07-31T01:04:07;20.70;99.90
19330;DHT22;9799;48.214;16.388;2023-07-31T01:07:35;20.60;99.90
19330;DHT22;9799;48.214;16.388;2023-07-31T01:11:05;20.70;99.90
19330;DHT22;9799;48.214;16.388;2023-07-31T01:14:30;20.60;99.90
19330;DHT22;9799;48.214;16.388;2023-07-31T01:17:51;20.60;99.90
19330;DHT22;9799;48.214;16.388;2023-07-31T01:21:23;20.60;99.90
19330;DHT22;9799;48.214;16.388;2023-07-31T01:25:05;20.60;99.90
19330;DHT22;9799;48.214;16.388;2023-07-31T01:29:10;20.60;99.90
19330;DHT22;9799;48.214;16.388;2023-07-31T01:32:57;20.60;99.90
19330;DHT22;9799;48.214;16.388;2023-07-31T01:36:37;20.50;99.90
19330;DHT22;9799;48.214;16.388;2023-07-31T01:39:58;20.60;99.90
19330;DHT22;9799;48.214;16.388;2023-07-31T01:43:19;20.50;99.90
19330;DHT22;9799;48.214;16.388;2023-07-31T01:46:42;20.60;99.90
19330;DHT22;9799;48.214;16.388;2023-07-31T01:50:04;20.60;99.90
19330;DHT22;9799;48.214;16.388;2023-07-31T01:53:25;20.60;99.90
19330;DHT22;9799;48.214;16.388;2023-07-31T01:56:46;20.60;99.90
19330;DHT22;9799;48.214;16.388;2023-07-31T02:00:08;20.60;99.90
19330;DHT22;9799;48.214;16.388;2023-07-31T02:03:36;20.50;99.90
19330;DHT22;9799;48.214;16.388;2023-07-31T02:06:57;20.50;99.90
19330;DHT22;9799;48.214;16.388;2023-07-31T02:10:18;20.50;99.90
19330;DHT22;9799;48.214;16.388;2023-07-31T02:13:40;20.50;99.90
19330;DHT22;9799;48.214;16.388;2023-07-31T02:17:01;20.50;99.90
19330;DHT22;9799;48.214;16.388;2023-07-31T02:20:23;20.50;99.90
19330;DHT22;9799;48.214;16.388;2023-07-31T02:23:45;20.50;99.90
19330;DHT22;9799;48.214;16.388;2023-07-31T02:27:06;20.50;99.90
19330;DHT22;9799;48.214;16.388;2023-07-31T02:30:27;20.40;99.90
19330;DHT22;9799;48.214;16.388;2023-07-31T02:33:48;20.30;99.90
19330;DHT22;9799;48.214;16.388;2023-07-31T02:37:11;20.10;99.90
19330;DHT22;9799;48.214;16.388;2023-07-31T02:40:35;20.10;99.90
19330;DHT22;9799;48.214;16.388;2023-07-31T02:43:56;20.20;99.90
19330;DHT22;9799;48.214;16.388;2023-07-31T02:47:17;20.20;99.90
19330;DHT22;9799;48.214;16.388;2023-07-31T02:50:38;20.30;99.90
19330;DHT22;9799;48.214;16.388;2023-07-31T02:54:01;20.30;99.90
19330;DHT22;9799;48.214;16.388;2023-07-31T02:57:22;20.20;99.90
19330;DHT22;9799;48.214;16.388;2023-07-31T03:00:43;20.30;99.90
19330;DHT22;9799;48.214;16.388;2023-07-31T03:04:04;20.40;99.90
19330;DHT22;9799;48.214;16.388;2023-07-31T03:07:26;20.30;99.90
19330;DHT22;9799;48.214;16.388;2023-07-31T03:10:48;20.40;99.90
19330;DHT22;9799;48.214;16.388;2023-07-31T03:14:09;20.40;99.90
19330;DHT22;9799;48.214;16.388;2023-07-31T03:17:30;20.30;99.90
19330;DHT22;9799;48.214;16.388;2023-07-31T03:20:54;20.20;99.90
19330;DHT22;9799;48.214;16.388;2023-07-31T03:24:15;20.10;99.90
19330;DHT22;9799;48.214;16.388;2023-07-31T03:27:38;20.10;99.90
19330;DHT22;9799;48.214;16.388;2023-07-31T03:30:59;20.20;99.90
19330;DHT22;9799;48.214;16.388;2023-07-31T03:34:20;20.20;99.90
19330;DHT22;9799;48.214;16.388;2023-07-31T03:37:41;20.30;99.90
19330;DHT22;9799;48.214;16.388;2023-07-31T03:41:02;20.20;99.90
19330;DHT22;9799;48.214;16.388;2023-07-31T03:44:27;20.20;99.90
19330;DHT22;9799;48.214;16.388;2023-07-31T03:47:48;20.20;99.90
19330;DHT22;9799;48.214;16.388;2023-07-31T03:51:09;20.20;99.90
19330;DHT22;9799;48.214;16.388;2023-07-31T03:54:30;20.20;99.90
19330;DHT22;9799;48.214;16.388;2023-07-31T03:57:51;20.10;99.90
19330;DHT22;9799;48.214;16.388;2023-07-31T04:01:14;20.10;99.90
19330;DHT22;9799;48.214;16.388;2023-07-31T04:04:35;20.20;99.90
19330;DHT22;9799;48.214;16.388;2023-07-31T04:07:56;20.20;99.90
19330;DHT22;9799;48.214;16.388;2023-07-31T04:11:17;20.30;99.90
19330;DHT22;9799;48.214;16.388;2023-07-31T04:14:38;20.30;99.90
19330;DHT22;9799;48.214;16.388;2023-07-31T04:18:01;20.30;99.90
19330;DHT22;9799;48.214;16.388;2023-07-31T04:21:22;20.30;99.90
19330;DHT22;9799;48.214;16.388;2023-07-31T04:24:43;20.30;99.90
19330;DHT22;9799;48.214;16.388;2023-07-31T04:28:05;20.30;99.90
19330;DHT22;9799;48.214;16.388;2023-07-31T04:31:27;20.30;99.90
19330;DHT22;9799;48.214;16.388;2023-07-31T04:34:49;20.30;99.90
19330;DHT22;9799;48.214;16.388;2023-07-31T04:38:10;20.30;99.90
19330;DHT22;9799;48.214;16.388;2023-07-31T04:41:32;20.30;99.90
19330;DHT22;9799;48.214;16.388;2023-07-31T04:44:53;20.30;99.90
19330;DHT22;9799;48.214;16.388;2023-07-31T04:48:14;20.30;99.90
19330;DHT22;9799;48.214;16.388;2023-07-31T04:51:36;20.20;99.90
19330;DHT22;9799;48.214;16.388;2023-07-31T04:54:58;20.30;99.90
19330;DHT22;9799;48.214;16.388;2023-07-31T04:58:19;20.30;99.90
19330;DHT22;9799;48.214;16.388;2023-07-31T05:01:40;20.30;99.90
19330;DHT22;9799;48.214;16.388;2023-07-31T05:05:01;20.40;99.90
19330;DHT22;9799;48.214;16.388;2023-07-31T05:08:24;20.40;99.90
19330;DHT22;9799;48.214;16.388;2023-07-31T05:11:45;20.50;99.90
19330;DHT22;9799;48.214;16.388;2023-07-31T05:15:07;20.60;99.90
19330;DHT22;9799;48.214;16.388;2023-07-31T05:18:28;20.70;99.90
19330;DHT22;9799;48.214;16.388;2023-07-31T05:21:49;20.60;99.90
19330;DHT22;9799;48.214;16.388;2023-07-31T05:25:12;20.60;99.90
19330;DHT22;9799;48.214;16.388;2023-07-31T05:28:35;20.70;99.90
19330;DHT22;9799;48.214;16.388;2023-07-31T05:31:56;20.70;99.90
19330;DHT22;9799;48.214;16.388;2023-07-31T05:35:17;20.70;99.90
19330;DHT22;9799;48.214;16.388;2023-07-31T05:38:38;20.60;99.90
19330;DHT22;9799;48.214;16.388;2023-07-31T05:42:01;20.50;99.90
19330;DHT22;9799;48.214;16.388;2023-07-31T05:45:22;20.60;99.90
19330;DHT22;9799;48.214;16.388;2023-07-31T05:48:45;20.60;99.90
19330;DHT22;9799;48.214;16.388;2023-07-31T05:52:07;20.70;99.90
19330;DHT22;9799;48.214;16.388;2023-07-31T05:55:28;21.00;99.90
19330;DHT22;9799;48.214;16.388;2023-07-31T05:58:50;21.30;99.90
19330;DHT22;9799;48.214;16.388;2023-07-31T06:02:12;21.50;99.90
19330;DHT22;9799;48.214;16.388;2023-07-31T06:05:33;21.80;99.90
19330;DHT22;9799;48.214;16.388;2023-07-31T06:08:54;22.00;99.90
19330;DHT22;9799;48.214;16.388;2023-07-31T06:12:15;22.20;99.90
19330;DHT22;9799;48.214;16.388;2023-07-31T06:15:40;22.10;99.90
19330;DHT22;9799;48.214;16.388;2023-07-31T06:19:01;22.00;99.90
19330;DHT22;9799;48.214;16.388;2023-07-31T06:22:22;21.90;99.90
19330;DHT22;9799;48.214;16.388;2023-07-31T06:25:43;21.90;99.90
19330;DHT22;9799;48.214;16.388;2023-07-31T06:29:05;21.90;99.90
19330;DHT22;9799;48.214;16.388;2023-07-31T06:32:27;21.90;99.90
19330;DHT22;9799;48.214;16.388;2023-07-31T06:35:48;21.90;99.90
19330;DHT22;9799;48.214;16.388;2023-07-31T06:39:09;21.90;99.90
19330;DHT22;9799;48.214;16.388;2023-07-31T06:42:31;22.10;99.90
19330;DHT22;9799;48.214;16.388;2023-07-31T06:45:52;22.10;99.90
19330;DHT22;9799;48.214;16.388;2023-07-31T06:49:14;22.00;99.90
19330;DHT22;9799;48.214;16.388;2023-07-31T06:52:35;22.20;99.90
19330;DHT22;9799;48.214;16.388;2023-07-31T06:55:57;22.40;99.90
19330;DHT22;9799;48.214;16.388;2023-07-31T06:59:18;22.50;99.90
19330;DHT22;9799;48.214;16.388;2023-07-31T07:02:39;22.70;99.90
19330;DHT22;9799;48.214;16.388;2023-07-31T07:06:01;22.80;99.90
19330;DHT22;9799;48.214;16.388;2023-07-31T07:09:23;22.70;99.90
19330;DHT22;9799;48.214;16.388;2023-07-31T07:12:44;22.80;99.90
19330;DHT22;9799;48.214;16.388;2023-07-31T07:16:05;22.90;99.90
19330;DHT22;9799;48.214;16.388;2023-07-31T07:19:26;23.10;99.90
19330;DHT22;9799;48.214;16.388;2023-07-31T07:22:49;23.30;99.90
19330;DHT22;9799;48.214;16.388;2023-07-31T07:26:10;23.40;99.90
19330;DHT22;9799;48.214;16.388;2023-07-31T07:29:31;23.50;99.90
19330;DHT22;9799;48.214;16.388;2023-07-31T07:32:52;23.50;99.90
19330;DHT22;9799;48.214;16.388;2023-07-31T07:36:15;23.60;99.90
19330;DHT22;9799;48.214;16.388;2023-07-31T07:39:41;23.50;99.30
19330;DHT22;9799;48.214;16.388;2023-07-31T07:43:05;23.40;99.20
19330;DHT22;9799;48.214;16.388;2023-07-31T07:46:26;23.50;99.20
19330;DHT22;9799;48.214;16.388;2023-07-31T07:49:48;23.70;98.40
19330;DHT22;9799;48.214;16.388;2023-07-31T07:53:14;23.50;97.50
19330;DHT22;9799;48.214;16.388;2023-07-31T07:56:37;23.40;97.20
19330;DHT22;9799;48.214;16.388;2023-07-31T08:00:02;23.40;97.20
19330;DHT22;9799;48.214;16.388;2023-07-31T08:03:23;23.50;96.60
19330;DHT22;9799;48.214;16.388;2023-07-31T08:06:55;23.80;96.50
19330;DHT22;9799;48.214;16.388;2023-07-31T08:10:20;23.80;95.00
19330;DHT22;9799;48.214;16.388;2023-07-31T08:13:48;23.80;95.40
19330;DHT22;9799;48.214;16.388;2023-07-31T08:17:25;23.90;95.60
19330;DHT22;9799;48.214;16.388;2023-07-31T08:21:08;23.80;95.40
19330;DHT22;9799;48.214;16.388;2023-07-31T08:24:44;23.70;95.30
19330;DHT22;9799;48.214;16.388;2023-07-31T08:28:19;23.80;94.90
19330;DHT22;9799;48.214;16.388;2023-07-31T08:31:50;23.80;95.10
19330;DHT22;9799;48.214;16.388;2023-07-31T08:35:17;23.70;94.30
19330;DHT22;9799;48.214;16.388;2023-07-31T08:38:43;23.70;95.00
19330;DHT22;9799;48.214;16.388;2023-07-31T08:42:15;23.80;95.00
19330;DHT22;9799;48.214;16.388;2023-07-31T08:45:38;24.10;94.50
19330;DHT22;9799;48.214;16.388;2023-07-31T08:49:19;24.30;93.20
19330;DHT22;9799;48.214;16.388;2023-07-31T08:52:52;24.40;91.20
19330;DHT22;9799;48.214;16.388;2023-07-31T08:56:25;24.30;90.90
19330;DHT22;9799;48.214;16.388;2023-07-31T08:59:57;24.50;91.90
19330;DHT22;9799;48.214;16.388;2023-07-31T09:03:21;24.50;91.00
19330;DHT22;9799;48.214;16.388;2023-07-31T09:07:11;24.60;92.20
19330;DHT22;9799;48.214;16.388;2023-07-31T09:10:43;24.60;91.50
19330;DHT22;9799;48.214;16.388;2023-07-31T09:14:12;24.70;91.20
19330;DHT22;9799;48.214;16.388;2023-07-31T09:18:02;24.90;90.20
19330;DHT22;9799;48.214;16.388;2023-07-31T09:21:26;24.50;90.90
19330;DHT22;9799;48.214;16.388;2023-07-31T09:24:54;24.50;90.30
19330;DHT22;9799;48.214;16.388;2023-07-31T09:28:17;24.30;89.90
19330;DHT22;9799;48.214;16.388;2023-07-31T09:31:40;24.30;90.30
19330;DHT22;9799;48.214;16.388;2023-07-31T09:35:01;24.80;89.50
19330;DHT22;9799;48.214;16.388;2023-07-31T09:38:33;25.10;88.80
19330;DHT22;9799;48.214;16.388;2023-07-31T09:41:58;25.00;88.80
19330;DHT22;9799;48.214;16.388;2023-07-31T09:45:25;25.20;89.20
19330;DHT22;9799;48.214;16.388;2023-07-31T09:49:06;25.20;89.90
19330;DHT22;9799;48.214;16.388;2023-07-31T09:52:29;25.40;88.60
19330;DHT22;9799;48.214;16.388;2023-07-31T09:55:50;25.30;88.00
19330;DHT22;9799;48.214;16.388;2023-07-31T09:59:14;25.40;89.80
19330;DHT22;9799;48.214;16.388;2023-07-31T10:02:36;25.30;88.50
19330;DHT22;9799;48.214;16.388;2023-07-31T10:05:59;25.20;89.50
19330;DHT22;9799;48.214;16.388;2023-07-31T10:09:21;25.60;88.70
19330;DHT22;9799;48.214;16.388;2023-07-31T10:12:46;25.60;87.80
19330;DHT22;9799;48.214;16.388;2023-07-31T10:16:09;25.60;86.50
19330;DHT22;9799;48.214;16.388;2023-07-31T10:19:31;25.10;86.50
19330;DHT22;9799;48.214;16.388;2023-07-31T10:22:54;24.90;87.50
19330;DHT22;9799;48.214;16.388;2023-07-31T10:26:17;25.00;88.50
19330;DHT22;9799;48.214;16.388;2023-07-31T10:29:40;25.00;86.30
19330;DHT22;9799;48.214;16.388;2023-07-31T10:33:04;25.20;85.90
19330;DHT22;9799;48.214;16.388;2023-07-31T10:36:26;25.30;86.00
19330;DHT22;9799;48.214;16.388;2023-07-31T10:39:56;25.40;86.70
19330;DHT22;9799;48.214;16.388;2023-07-31T10:43:24;25.80;84.40
19330;DHT22;9799;48.214;16.388;2023-07-31T10:46:47;26.00;83.80
19330;DHT22;9799;48.214;16.388;2023-07-31T10:50:13;26.00;83.00
19330;DHT22;9799;48.214;16.388;2023-07-31T10:53:34;26.00;83.50
19330;DHT22;9799;48.214;16.388;2023-07-31T10:56:57;25.80;83.20
19330;DHT22;9799;48.214;16.388;2023-07-31T11:00:19;25.90;83.30
19330;DHT22;9799;48.214;16.388;2023-07-31T11:03:42;26.00;82.50
19330;DHT22;9799;48.214;16.388;2023-07-31T11:07:05;26.30;81.80
19330;DHT22;9799;48.214;16.388;2023-07-31T11:10:30;26.50;79.70
19330;DHT22;9799;48.214;16.388;2023-07-31T11:13:52;26.20;84.40
19330;DHT22;9799;48.214;16.388;2023-07-31T11:17:14;26.20;80.80
19330;DHT22;9799;48.214;16.388;2023-07-31T11:20:36;26.50;78.40
19330;DHT22;9799;48.214;16.388;2023-07-31T11:23:59;26.70;79.10
19330;DHT22;9799;48.214;16.388;2023-07-31T11:27:21;27.10;82.10
19330;DHT22;9799;48.214;16.388;2023-07-31T11:30:43;26.60;82.50
19330;DHT22;9799;48.214;16.388;2023-07-31T11:34:05;26.70;79.80
19330;DHT22;9799;48.214;16.388;2023-07-31T11:37:38;26.70;80.90
19330;DHT22;9799;48.214;16.388;2023-07-31T11:41:04;26.80;78.00
19330;DHT22;9799;48.214;16.388;2023-07-31T11:44:25;27.00;77.00
19330;DHT22;9799;48.214;16.388;2023-07-31T11:47:46;27.00;76.80
19330;DHT22;9799;48.214;16.388;2023-07-31T11:51:10;27.00;77.40
19330;DHT22;9799;48.214;16.388;2023-07-31T11:54:38;27.10;76.80
19330;DHT22;9799;48.214;16.388;2023-07-31T11:58:01;26.70;78.10
19330;DHT22;9799;48.214;16.388;2023-07-31T12:01:23;27.00;78.00
19330;DHT22;9799;48.214;16.388;2023-07-31T12:04:45;27.20;76.60
19330;DHT22;9799;48.214;16.388;2023-07-31T12:08:11;27.00;73.30
19330;DHT22;9799;48.214;16.388;2023-07-31T12:11:42;26.80;73.70
19330;DHT22;9799;48.214;16.388;2023-07-31T12:15:14;27.20;70.80
19330;DHT22;9799;48.214;16.388;2023-07-31T12:18:36;27.30;70.80
19330;DHT22;9799;48.214;16.388;2023-07-31T12:21:59;27.30;72.00
19330;DHT22;9799;48.214;16.388;2023-07-31T12:25:20;27.60;71.80
19330;DHT22;9799;48.214;16.388;2023-07-31T12:28:42;27.30;71.20
19330;DHT22;9799;48.214;16.388;2023-07-31T12:32:19;27.30;74.10
19330;DHT22;9799;48.214;16.388;2023-07-31T12:35:44;27.60;72.50
19330;DHT22;9799;48.214;16.388;2023-07-31T12:39:05;27.70;72.50
19330;DHT22;9799;48.214;16.388;2023-07-31T12:42:27;27.70;73.20
19330;DHT22;9799;48.214;16.388;2023-07-31T12:45:48;27.60;72.20
19330;DHT22;9799;48.214;16.388;2023-07-31T12:49:11;27.40;75.40
19330;DHT22;9799;48.214;16.388;2023-07-31T12:52:32;27.70;73.70
19330;DHT22;9799;48.214;16.388;2023-07-31T12:55:54;27.80;75.50
19330;DHT22;9799;48.214;16.388;2023-07-31T12:59:15;27.80;73.60
19330;DHT22;9799;48.214;16.388;2023-07-31T13:02:36;27.70;72.20
19330;DHT22;9799;48.214;16.388;2023-07-31T13:05:59;27.70;71.50
19330;DHT22;9799;48.214;16.388;2023-07-31T13:09:20;27.50;72.60
19330;DHT22;9799;48.214;16.388;2023-07-31T13:12:41;27.90;72.40
19330;DHT22;9799;48.214;16.388;2023-07-31T13:16:02;28.00;70.90
19330;DHT22;9799;48.214;16.388;2023-07-31T13:19:24;28.20;69.60
19330;DHT22;9799;48.214;16.388;2023-07-31T13:22:46;28.00;69.10
19330;DHT22;9799;48.214;16.388;2023-07-31T13:26:07;28.10;70.30
19330;DHT22;9799;48.214;16.388;2023-07-31T13:29:28;28.10;70.70
19330;DHT22;9799;48.214;16.388;2023-07-31T13:32:50;28.10;70.90
19330;DHT22;9799;48.214;16.388;2023-07-31T13:36:11;28.00;70.10
19330;DHT22;9799;48.214;16.388;2023-07-31T13:39:35;28.00;70.40
19330;DHT22;9799;48.214;16.388;2023-07-31T13:42:56;27.90;70.80
19330;DHT22;9799;48.214;16.388;2023-07-31T13:46:17;27.90;69.20
19330;DHT22;9799;48.214;16.388;2023-07-31T13:49:38;27.90;69.10
19330;DHT22;9799;48.214;16.388;2023-07-31T13:53:00;27.70;71.90
19330;DHT22;9799;48.214;16.388;2023-07-31T13:56:22;27.70;74.80
19330;DHT22;9799;48.214;16.388;2023-07-31T13:59:43;27.60;71.40
19330;DHT22;9799;48.214;16.388;2023-07-31T14:03:04;27.90;69.80
19330;DHT22;9799;48.214;16.388;2023-07-31T14:06:26;27.90;70.40
19330;DHT22;9799;48.214;16.388;2023-07-31T14:09:47;28.00;67.30
19330;DHT22;9799;48.214;16.388;2023-07-31T14:13:09;28.10;66.50
19330;DHT22;9799;48.214;16.388;2023-07-31T14:16:31;28.10;68.20
19330;DHT22;9799;48.214;16.388;2023-07-31T14:19:52;28.00;69.60
19330;DHT22;9799;48.214;16.388;2023-07-31T14:23:13;28.30;68.30
19330;DHT22;9799;48.214;16.388;2023-07-31T14:26:35;28.00;66.80
19330;DHT22;9799;48.214;16.388;2023-07-31T14:29:57;27.60;69.20
19330;DHT22;9799;48.214;16.388;2023-07-31T14:33:19;27.30;70.30
19330;DHT22;9799;48.214;16.388;2023-07-31T14:36:40;27.40;70.20
19330;DHT22;9799;48.214;16.388;2023-07-31T14:40:01;27.70;70.50
19330;DHT22;9799;48.214;16.388;2023-07-31T14:43:22;27.90;67.20
19330;DHT22;9799;48.214;16.388;2023-07-31T14:46:45;28.10;67.30
19330;DHT22;9799;48.214;16.388;2023-07-31T14:50:07;28.20;67.10
19330;DHT22;9799;48.214;16.388;2023-07-31T14:53:28;28.20;69.20
19330;DHT22;9799;48.214;16.388;2023-07-31T14:56:49;28.20;66.20
19330;DHT22;9799;48.214;16.388;2023-07-31T15:00:11;28.20;63.70
19330;DHT22;9799;48.214;16.388;2023-07-31T15:03:34;28.30;65.70
19330;DHT22;9799;48.214;16.388;2023-07-31T15:06:55;28.40;65.40
19330;DHT22;9799;48.214;16.388;2023-07-31T15:10:17;28.10;66.60
19330;DHT22;9799;48.214;16.388;2023-07-31T15:13:38;28.00;65.90
19330;DHT22;9799;48.214;16.388;2023-07-31T15:16:59;28.00;65.50
19330;DHT22;9799;48.214;16.388;2023-07-31T15:20:22;28.20;67.20
19330;DHT22;9799;48.214;16.388;2023-07-31T15:23:43;28.20;65.00
19330;DHT22;9799;48.214;16.388;2023-07-31T15:27:05;28.10;65.70
19330;DHT22;9799;48.214;16.388;2023-07-31T15:30:29;28.00;65.70
19330;DHT22;9799;48.214;16.388;2023-07-31T15:33:50;28.10;67.30
19330;DHT22;9799;48.214;16.388;2023-07-31T15:37:13;28.00;69.60
19330;DHT22;9799;48.214;16.388;2023-07-31T15:40:34;28.00;65.80
19330;DHT22;9799;48.214;16.388;2023-07-31T15:43:55;28.00;62.40
19330;DHT22;9799;48.214;16.388;2023-07-31T15:47:16;28.00;62.00
19330;DHT22;9799;48.214;16.388;2023-07-31T15:50:37;28.00;64.00
19330;DHT22;9799;48.214;16.388;2023-07-31T15:54:01;28.00;63.40
19330;DHT22;9799;48.214;16.388;2023-07-31T15:57:22;28.10;64.20
19330;DHT22;9799;48.214;16.388;2023-07-31T16:00:44;27.90;64.00
19330;DHT22;9799;48.214;16.388;2023-07-31T16:04:05;27.80;65.20
19330;DHT22;9799;48.214;16.388;2023-07-31T16:07:26;27.70;68.00
19330;DHT22;9799;48.214;16.388;2023-07-31T16:10:49;27.70;66.00
19330;DHT22;9799;48.214;16.388;2023-07-31T16:14:10;27.80;65.10
19330;DHT22;9799;48.214;16.388;2023-07-31T16:17:31;27.80;65.00
19330;DHT22;9799;48.214;16.388;2023-07-31T16:20:52;27.70;65.70
19330;DHT22;9799;48.214;16.388;2023-07-31T16:24:15;27.60;66.20
19330;DHT22;9799;48.214;16.388;2023-07-31T16:27:40;27.60;66.70
19330;DHT22;9799;48.214;16.388;2023-07-31T16:31:01;27.60;66.90
19330;DHT22;9799;48.214;16.388;2023-07-31T16:34:22;27.70;67.60
19330;DHT22;9799;48.214;16.388;2023-07-31T16:37:44;27.70;69.00
19330;DHT22;9799;48.214;16.388;2023-07-31T16:41:08;27.50;68.70
19330;DHT22;9799;48.214;16.388;2023-07-31T16:44:42;27.50;68.60
19330;DHT22;9799;48.214;16.388;2023-07-31T16:48:03;27.50;68.10
19330;DHT22;9799;48.214;16.388;2023-07-31T16:51:26;27.30;69.30
19330;DHT22;9799;48.214;16.388;2023-07-31T16:54:47;27.20;69.50
19330;DHT22;9799;48.214;16.388;2023-07-31T16:58:17;27.20;69.60
19330;DHT22;9799;48.214;16.388;2023-07-31T17:01:39;27.20;71.40
19330;DHT22;9799;48.214;16.388;2023-07-31T17:05:01;27.10;71.30
19330;DHT22;9799;48.214;16.388;2023-07-31T17:08:22;27.10;71.60
19330;DHT22;9799;48.214;16.388;2023-07-31T17:11:43;26.70;75.00
19330;DHT22;9799;48.214;16.388;2023-07-31T17:15:06;26.70;73.60
19330;DHT22;9799;48.214;16.388;2023-07-31T17:18:28;26.70;73.00
19330;DHT22;9799;48.214;16.388;2023-07-31T17:21:49;26.80;73.50
19330;DHT22;9799;48.214;16.388;2023-07-31T17:25:11;26.70;77.60
19330;DHT22;9799;48.214;16.388;2023-07-31T17:28:32;26.50;74.80
19330;DHT22;9799;48.214;16.388;2023-07-31T17:31:54;26.50;75.60
19330;DHT22;9799;48.214;16.388;2023-07-31T17:35:17;26.50;76.40
19330;DHT22;9799;48.214;16.388;2023-07-31T17:38:38;26.50;78.10
19330;DHT22;9799;48.214;16.388;2023-07-31T17:42:01;26.40;77.20
19330;DHT22;9799;48.214;16.388;2023-07-31T17:45:23;26.50;77.10
19330;DHT22;9799;48.214;16.388;2023-07-31T17:48:45;26.40;77.20
19330;DHT22;9799;48.214;16.388;2023-07-31T17:52:11;26.40;77.20
19330;DHT22;9799;48.214;16.388;2023-07-31T17:55:35;26.40;76.60
19330;DHT22;9799;48.214;16.388;2023-07-31T17:58:57;26.40;80.20
19330;DHT22;9799;48.214;16.388;2023-07-31T18:02:19;26.10;78.90
19330;DHT22;9799;48.214;16.388;2023-07-31T18:05:41;25.90;80.10
19330;DHT22;9799;48.214;16.388;2023-07-31T18:09:05;26.00;80.50
19330;DHT22;9799;48.214;16.388;2023-07-31T18:12:27;26.00;81.20
19330;DHT22;9799;48.214;16.388;2023-07-31T18:15:49;26.00;82.10
19330;DHT22;9799;48.214;16.388;2023-07-31T18:19:11;26.00;83.20
19330;DHT22;9799;48.214;16.388;2023-07-31T18:22:32;25.80;84.30
19330;DHT22;9799;48.214;16.388;2023-07-31T18:25:55;25.80;84.90
19330;DHT22;9799;48.214;16.388;2023-07-31T18:29:18;25.80;86.20
19330;DHT22;9799;48.214;16.388;2023-07-31T18:32:40;25.70;88.40
19330;DHT22;9799;48.214;16.388;2023-07-31T18:36:03;25.60;89.50
19330;DHT22;9799;48.214;16.388;2023-07-31T18:39:24;25.50;90.80
19330;DHT22;9799;48.214;16.388;2023-07-31T18:42:48;25.40;91.70
19330;DHT22;9799;48.214;16.388;2023-07-31T18:46:10;25.20;92.40
19330;DHT22;9799;48.214;16.388;2023-07-31T18:49:32;25.30;92.90
19330;DHT22;9799;48.214;16.388;2023-07-31T18:52:55;25.10;93.30
19330;DHT22;9799;48.214;16.388;2023-07-31T18:56:18;25.30;93.70
19330;DHT22;9799;48.214;16.388;2023-07-31T18:59:41;25.30;94.00
19330;DHT22;9799;48.214;16.388;2023-07-31T19:03:03;25.30;94.30
19330;DHT22;9799;48.214;16.388;2023-07-31T19:06:24;25.40;94.70
19330;DHT22;9799;48.214;16.388;2023-07-31T19:09:47;25.20;95.20
19330;DHT22;9799;48.214;16.388;2023-07-31T19:13:10;25.10;96.00
19330;DHT22;9799;48.214;16.388;2023-07-31T19:16:34;25.10;96.40
19330;DHT22;9799;48.214;16.388;2023-07-31T19:19:56;25.10;96.80
19330;DHT22;9799;48.214;16.388;2023-07-31T19:23:18;25.10;97.20
19330;DHT22;9799;48.214;16.388;2023-07-31T19:26:40;25.10;97.80
19330;DHT22;9799;48.214;16.388;2023-07-31T19:30:04;25.00;98.50
19330;DHT22;9799;48.214;16.388;2023-07-31T19:33:28;25.00;99.00
19330;DHT22;9799;48.214;16.388;2023-07-31T19:36:50;25.10;99.40
19330;DHT22;9799;48.214;16.388;2023-07-31T19:40:12;24.90;99.90
19330;DHT22;9799;48.214;16.388;2023-07-31T19:43:35;24.80;99.90
19330;DHT22;9799;48.214;16.388;2023-07-31T19:46:57;24.80;99.90
19330;DHT22;9799;48.214;16.388;2023-07-31T19:50:22;24.80;99.90
19330;DHT22;9799;48.214;16.388;2023-07-31T19:53:44;24.80;99.90
19330;DHT22;9799;48.214;16.388;2023-07-31T19:57:06;24.80;99.90
19330;DHT22;9799;48.214;16.388;2023-07-31T20:00:27;24.70;99.90
19330;DHT22;9799;48.214;16.388;2023-07-31T20:03:49;24.70;99.90
19330;DHT22;9799;48.214;16.388;2023-07-31T20:07:13;24.80;99.90
19330;DHT22;9799;48.214;16.388;2023-07-31T20:10:35;24.80;99.90
19330;DHT22;9799;48.214;16.388;2023-07-31T20:13:57;24.60;99.90
19330;DHT22;9799;48.214;16.388;2023-07-31T20:17:19;24.50;99.90
19330;DHT22;9799;48.214;16.388;2023-07-31T20:20:43;24.50;99.90
19330;DHT22;9799;48.214;16.388;2023-07-31T20:24:08;24.50;99.90
19330;DHT22;9799;48.214;16.388;2023-07-31T20:27:31;24.40;99.90
19330;DHT22;9799;48.214;16.388;2023-07-31T20:30:52;24.40;99.90
19330;DHT22;9799;48.214;16.388;2023-07-31T20:34:15;24.40;99.90
19330;DHT22;9799;48.214;16.388;2023-07-31T20:37:37;24.40;99.90
19330;DHT22;9799;48.214;16.388;2023-07-31T20:41:00;24.40;99.90
19330;DHT22;9799;48.214;16.388;2023-07-31T20:44:23;24.30;99.90
19330;DHT22;9799;48.214;16.388;2023-07-31T20:47:45;24.30;99.90
19330;DHT22;9799;48.214;16.388;2023-07-31T20:51:07;24.30;99.90
19330;DHT22;9799;48.214;16.388;2023-07-31T20:54:29;24.20;99.90
19330;DHT22;9799;48.214;16.388;2023-07-31T20:58:00;24.20;99.90
19330;DHT22;9799;48.214;16.388;2023-07-31T21:01:21;24.20;99.90
19330;DHT22;9799;48.214;16.388;2023-07-31T21:04:42;24.30;99.90
19330;DHT22;9799;48.214;16.388;2023-07-31T21:08:04;24.30;99.90
19330;DHT22;9799;48.214;16.388;2023-07-31T21:11:25;24.30;99.90
19330;DHT22;9799;48.214;16.388;2023-07-31T21:14:50;24.30;99.90
19330;DHT22;9799;48.214;16.388;2023-07-31T21:18:12;24.30;99.90
19330;DHT22;9799;48.214;16.388;2023-07-31T21:21:34;24.30;99.90